sensor_id;sensor_type;location;lat;lon;timestamp;P1;P2;P0
20157;PMS5003;10239;56.820;24.416;2023-04-24T00:02:19;7.80;6.80;3.00
20157;PMS5003;10239;56.820;24.416;2023-04-24T00:04:47;7.00;4.40;2.60
20157;PMS5003;10239;56.820;24.416;2023-04-24T00:07:15;9.00;7.00;3.20
20157;PMS5003;10239;56.820;24.416;2023-04-24T00:09:43;11.40;11.00;4.00
20157;PMS5003;10239;56.820;24.416;2023-04-24T00:12:11;4.80;4.80;2.60
20157;PMS5003;10239;56.820;24.416;2023-04-24T00:14:39;5.20;4.80;3.60
20157;PMS5003;10239;56.820;24.416;2023-04-24T00:17:06;8.20;8.20;3.20
20157;PMS5003;10239;56.820;24.416;2023-04-24T00:19:34;9.00;6.60;2.80
20157;PMS5003;10239;56.820;24.416;2023-04-24T00:22:02;3.80;3.80;2.00
20157;PMS5003;10239;56.820;24.416;2023-04-24T00:24:30;7.80;7.80;4.20
20157;PMS5003;10239;56.820;24.416;2023-04-24T00:26:58;4.20;4.00;2.00
20157;PMS5003;10239;56.820;24.416;2023-04-24T00:29:27;8.20;5.60;2.80
20157;PMS5003;10239;56.820;24.416;2023-04-24T00:31:55;9.00;9.00;3.60
20157;PMS5003;10239;56.820;24.416;2023-04-24T00:34:23;9.00;6.20;3.20
20157;PMS5003;10239;56.820;24.416;2023-04-24T00:36:50;7.80;6.00;3.00
20157;PMS5003;10239;56.820;24.416;2023-04-24T00:39:19;6.60;6.20;3.40
20157;PMS5003;10239;56.820;24.416;2023-04-24T00:41:47;6.00;6.00;3.20
20157;PMS5003;10239;56.820;24.416;2023-04-24T00:44:15;5.00;5.00;3.20
20157;PMS5003;10239;56.820;24.416;2023-04-24T00:46:42;5.40;3.20;1.00
20157;PMS5003;10239;56.820;24.416;2023-04-24T00:49:10;8.00;3.80;1.20
20157;PMS5003;10239;56.820;24.416;2023-04-24T00:51:38;4.80;4.80;3.00
20157;PMS5003;10239;56.820;24.416;2023-04-24T00:54:07;6.80;4.00;2.80
20157;PMS5003;10239;56.820;24.416;2023-04-24T00:56:35;11.60;7.60;4.00
20157;PMS5003;10239;56.820;24.416;2023-04-24T00:59:03;7.00;5.80;3.00
20157;PMS5003;10239;56.820;24.416;2023-04-24T01:01:31;5.20;5.20;3.00
20157;PMS5003;10239;56.820;24.416;2023-04-24T01:03:59;7.20;7.20;3.00
20157;PMS5003;10239;56.820;24.416;2023-04-24T01:06:28;3.00;3.00;1.00
20157;PMS5003;10239;56.820;24.416;2023-04-24T01:08:58;5.80;4.60;3.00
20157;PMS5003;10239;56.820;24.416;2023-04-24T01:11:29;3.40;3.40;2.60
20157;PMS5003;10239;56.820;24.416;2023-04-24T01:13:57;6.80;6.60;3.00
20157;PMS5003;10239;56.820;24.416;2023-04-24T01:16:25;9.00;6.80;3.80
20157;PMS5003;10239;56.820;24.416;2023-04-24T01:18:53;4.40;4.40;3.80
20157;PMS5003;10239;56.820;24.416;2023-04-24T01:21:21;5.60;5.60;3.00
20157;PMS5003;10239;56.820;24.416;2023-04-24T01:23:56;6.60;5.20;3.00
20157;PMS5003;10239;56.820;24.416;2023-04-24T01:26:23;6.40;6.40;3.00
20157;PMS5003;10239;56.820;24.416;2023-04-24T01:28:52;6.40;6.40;2.40
20157;PMS5003;10239;56.820;24.416;2023-04-24T01:31:20;8.00;4.00;3.00
20157;PMS5003;10239;56.820;24.416;2023-04-24T01:33:48;8.00;6.00;1.60
20157;PMS5003;10239;56.820;24.416;2023-04-24T01:36:17;6.80;6.00;3.00
20157;PMS5003;10239;56.820;24.416;2023-04-24T01:38:45;6.00;6.00;3.00
20157;PMS5003;10239;56.820;24.416;2023-04-24T01:41:13;7.80;7.80;4.00
20157;PMS5003;10239;56.820;24.416;2023-04-24T01:43:40;2.00;2.00;0.40
20157;PMS5003;10239;56.820;24.416;2023-04-24T01:46:08;6.20;6.20;3.00
20157;PMS5003;10239;56.820;24.416;2023-04-24T01:48:36;8.80;6.60;2.00
20157;PMS5003;10239;56.820;24.416;2023-04-24T01:51:04;6.00;6.00;3.20
20157;PMS5003;10239;56.820;24.416;2023-04-24T01:53:31;6.20;6.20;3.00
20157;PMS5003;10239;56.820;24.416;2023-04-24T01:55:59;5.80;5.80;3.00
20157;PMS5003;10239;56.820;24.416;2023-04-24T01:58:28;3.00;3.00;2.00
20157;PMS5003;10239;56.820;24.416;2023-04-24T02:00:56;7.00;7.00;3.00
20157;PMS5003;10239;56.820;24.416;2023-04-24T02:03:26;5.80;5.80;3.00
20157;PMS5003;10239;56.820;24.416;2023-04-24T02:05:55;7.20;5.80;3.00
20157;PMS5003;10239;56.820;24.416;2023-04-24T02:08:23;5.00;5.00;2.40
20157;PMS5003;10239;56.820;24.416;2023-04-24T02:10:51;5.40;5.40;1.80
20157;PMS5003;10239;56.820;24.416;2023-04-24T02:13:18;7.00;5.40;3.00
20157;PMS5003;10239;56.820;24.416;2023-04-24T02:15:46;10.80;7.60;3.00
20157;PMS5003;10239;56.820;24.416;2023-04-24T02:18:13;8.80;5.80;2.20
20157;PMS5003;10239;56.820;24.416;2023-04-24T02:20:42;3.80;2.20;1.60
20157;PMS5003;10239;56.820;24.416;2023-04-24T02:23:09;6.60;3.40;1.60
20157;PMS5003;10239;56.820;24.416;2023-04-24T02:25:37;5.40;5.40;3.00
20157;PMS5003;10239;56.820;24.416;2023-04-24T02:28:05;10.40;6.80;3.40
20157;PMS5003;10239;56.820;24.416;2023-04-24T02:30:33;9.00;5.60;3.00
20157;PMS5003;10239;56.820;24.416;2023-04-24T02:33:00;6.00;4.60;2.00
20157;PMS5003;10239;56.820;24.416;2023-04-24T02:35:28;4.60;4.60;2.00
20157;PMS5003;10239;56.820;24.416;2023-04-24T02:37:56;7.00;7.00;3.00
20157;PMS5003;10239;56.820;24.416;2023-04-24T02:40:23;5.80;5.60;3.00
20157;PMS5003;10239;56.820;24.416;2023-04-24T02:42:51;4.80;4.80;3.20
20157;PMS5003;10239;56.820;24.416;2023-04-24T02:45:18;7.00;6.00;3.00
20157;PMS5003;10239;56.820;24.416;2023-04-24T02:47:46;7.00;7.00;3.00
20157;PMS5003;10239;56.820;24.416;2023-04-24T02:50:14;6.40;5.00;2.80
20157;PMS5003;10239;56.820;24.416;2023-04-24T02:52:41;5.00;5.00;3.00
20157;PMS5003;10239;56.820;24.416;2023-04-24T02:55:09;5.80;5.80;2.80
20157;PMS5003;10239;56.820;24.416;2023-04-24T02:57:36;4.20;4.20;2.40
20157;PMS5003;10239;56.820;24.416;2023-04-24T03:00:04;7.40;6.40;4.40
20157;PMS5003;10239;56.820;24.416;2023-04-24T03:02:34;5.20;5.20;2.20
20157;PMS5003;10239;56.820;24.416;2023-04-24T03:05:01;8.80;5.00;1.60
20157;PMS5003;10239;56.820;24.416;2023-04-24T03:07:31;7.00;7.00;3.60
20157;PMS5003;10239;56.820;24.416;2023-04-24T03:09:58;7.40;5.60;3.00
20157;PMS5003;10239;56.820;24.416;2023-04-24T03:12:26;8.60;5.40;3.00
20157;PMS5003;10239;56.820;24.416;2023-04-24T03:14:54;5.60;2.60;1.00
20157;PMS5003;10239;56.820;24.416;2023-04-24T03:17:21;4.80;2.60;1.40
20157;PMS5003;10239;56.820;24.416;2023-04-24T03:19:49;4.20;3.80;1.80
20157;PMS5003;10239;56.820;24.416;2023-04-24T03:22:17;8.00;6.40;3.00
20157;PMS5003;10239;56.820;24.416;2023-04-24T03:24:44;3.00;3.00;2.20
20157;PMS5003;10239;56.820;24.416;2023-04-24T03:27:15;7.40;6.80;5.20
20157;PMS5003;10239;56.820;24.416;2023-04-24T03:29:50;10.80;6.80;3.60
20157;PMS5003;10239;56.820;24.416;2023-04-24T03:32:29;5.40;5.40;2.60
20157;PMS5003;10239;56.820;24.416;2023-04-24T03:34:59;8.60;6.00;2.00
20157;PMS5003;10239;56.820;24.416;2023-04-24T03:37:27;6.00;6.00;3.00
20157;PMS5003;10239;56.820;24.416;2023-04-24T03:40:07;7.60;7.60;3.00
20157;PMS5003;10239;56.820;24.416;2023-04-24T03:42:36;6.40;6.00;3.60
20157;PMS5003;10239;56.820;24.416;2023-04-24T03:45:05;6.00;5.60;3.00
20157;PMS5003;10239;56.820;24.416;2023-04-24T03:47:35;5.80;5.80;3.20
20157;PMS5003;10239;56.820;24.416;2023-04-24T03:50:04;6.20;6.20;3.60
20157;PMS5003;10239;56.820;24.416;2023-04-24T03:52:33;11.80;9.80;5.00
20157;PMS5003;10239;56.820;24.416;2023-04-24T03:55:01;5.80;5.80;2.40
20157;PMS5003;10239;56.820;24.416;2023-04-24T03:57:31;7.40;6.40;3.60
20157;PMS5003;10239;56.820;24.416;2023-04-24T04:00:10;7.20;6.00;2.20
20157;PMS5003;10239;56.820;24.416;2023-04-24T04:02:40;7.60;7.60;4.20
20157;PMS5003;10239;56.820;24.416;2023-04-24T04:05:09;7.20;6.40;2.40
20157;PMS5003;10239;56.820;24.416;2023-04-24T04:07:36;5.00;5.00;2.80
20157;PMS5003;10239;56.820;24.416;2023-04-24T04:10:04;7.80;6.00;2.60
20157;PMS5003;10239;56.820;24.416;2023-04-24T04:12:35;8.40;7.00;3.40
20157;PMS5003;10239;56.820;24.416;2023-04-24T04:15:03;9.00;8.00;4.80
20157;PMS5003;10239;56.820;24.416;2023-04-24T04:17:32;6.20;3.40;3.00
20157;PMS5003;10239;56.820;24.416;2023-04-24T04:20:03;12.20;7.60;4.20
20157;PMS5003;10239;56.820;24.416;2023-04-24T04:22:37;9.40;9.40;3.00
20157;PMS5003;10239;56.820;24.416;2023-04-24T04:25:08;8.00;6.60;3.20
20157;PMS5003;10239;56.820;24.416;2023-04-24T04:27:36;7.80;7.00;2.80
20157;PMS5003;10239;56.820;24.416;2023-04-24T04:30:08;13.00;13.00;6.20
20157;PMS5003;10239;56.820;24.416;2023-04-24T04:32:45;13.40;9.00;7.00
20157;PMS5003;10239;56.820;24.416;2023-04-24T04:35:14;8.80;8.80;5.80
20157;PMS5003;10239;56.820;24.416;2023-04-24T04:37:42;14.20;7.80;5.40
20157;PMS5003;10239;56.820;24.416;2023-04-24T04:40:37;7.20;6.20;3.20
20157;PMS5003;10239;56.820;24.416;2023-04-24T04:43:05;9.40;9.00;4.00
20157;PMS5003;10239;56.820;24.416;2023-04-24T04:45:40;7.60;6.80;4.20
20157;PMS5003;10239;56.820;24.416;2023-04-24T04:48:28;7.00;6.80;3.00
20157;PMS5003;10239;56.820;24.416;2023-04-24T04:51:00;7.00;7.00;3.40
20157;PMS5003;10239;56.820;24.416;2023-04-24T04:53:28;7.40;6.40;4.00
20157;PMS5003;10239;56.820;24.416;2023-04-24T04:55:56;7.00;6.80;3.60
20157;PMS5003;10239;56.820;24.416;2023-04-24T04:58:33;9.20;6.40;5.00
20157;PMS5003;10239;56.820;24.416;2023-04-24T05:01:02;7.00;6.00;4.00
20157;PMS5003;10239;56.820;24.416;2023-04-24T05:03:35;7.00;7.00;4.75
20157;PMS5003;10239;56.820;24.416;2023-04-24T05:06:07;9.75;4.50;3.00
20157;PMS5003;10239;56.820;24.416;2023-04-24T05:08:37;6.50;5.00;3.50
20157;PMS5003;10239;56.820;24.416;2023-04-24T05:11:08;9.00;6.00;2.75
20157;PMS5003;10239;56.820;24.416;2023-04-24T05:13:37;4.25;3.25;1.25
20157;PMS5003;10239;56.820;24.416;2023-04-24T05:16:12;6.25;6.25;3.75
20157;PMS5003;10239;56.820;24.416;2023-04-24T05:18:43;6.00;6.00;3.75
20157;PMS5003;10239;56.820;24.416;2023-04-24T05:21:14;7.75;6.75;4.75
20157;PMS5003;10239;56.820;24.416;2023-04-24T05:23:45;7.00;7.00;4.00
20157;PMS5003;10239;56.820;24.416;2023-04-24T05:26:19;8.25;7.50;4.00
20157;PMS5003;10239;56.820;24.416;2023-04-24T05:28:47;7.25;6.75;3.75
20157;PMS5003;10239;56.820;24.416;2023-04-24T05:31:15;8.00;7.25;4.00
20157;PMS5003;10239;56.820;24.416;2023-04-24T05:33:44;5.75;5.00;3.00
20157;PMS5003;10239;56.820;24.416;2023-04-24T05:36:12;10.25;7.00;4.00
20157;PMS5003;10239;56.820;24.416;2023-04-24T05:38:40;9.75;6.50;4.25
20157;PMS5003;10239;56.820;24.416;2023-04-24T05:41:08;5.75;5.75;3.00
20157;PMS5003;10239;56.820;24.416;2023-04-24T05:43:35;7.75;5.25;2.75
20157;PMS5003;10239;56.820;24.416;2023-04-24T05:46:03;8.75;8.00;5.50
20157;PMS5003;10239;56.820;24.416;2023-04-24T05:48:31;6.00;6.00;3.60
20157;PMS5003;10239;56.820;24.416;2023-04-24T05:51:01;7.60;6.40;4.60
20157;PMS5003;10239;56.820;24.416;2023-04-24T05:53:29;8.00;5.00;4.40
20157;PMS5003;10239;56.820;24.416;2023-04-24T05:55:57;8.60;8.60;5.60
20157;PMS5003;10239;56.820;24.416;2023-04-24T05:58:25;5.20;5.20;2.40
20157;PMS5003;10239;56.820;24.416;2023-04-24T06:00:53;8.00;8.00;3.60
20157;PMS5003;10239;56.820;24.416;2023-04-24T06:03:21;7.60;6.60;4.40
20157;PMS5003;10239;56.820;24.416;2023-04-24T06:05:50;9.20;7.60;5.00
20157;PMS5003;10239;56.820;24.416;2023-04-24T06:08:18;5.40;5.40;3.80
20157;PMS5003;10239;56.820;24.416;2023-04-24T06:10:47;8.80;7.60;4.20
20157;PMS5003;10239;56.820;24.416;2023-04-24T06:13:17;5.00;4.80;3.00
20157;PMS5003;10239;56.820;24.416;2023-04-24T06:16:04;8.00;8.00;3.80
20157;PMS5003;10239;56.820;24.416;2023-04-24T06:18:36;7.80;6.80;5.00
20157;PMS5003;10239;56.820;24.416;2023-04-24T06:21:03;8.00;8.00;5.20
20157;PMS5003;10239;56.820;24.416;2023-04-24T06:23:31;9.40;9.40;5.80
20157;PMS5003;10239;56.820;24.416;2023-04-24T06:25:59;5.80;5.80;3.20
20157;PMS5003;10239;56.820;24.416;2023-04-24T06:28:27;7.00;7.00;5.40
20157;PMS5003;10239;56.820;24.416;2023-04-24T06:30:55;8.60;8.60;4.80
20157;PMS5003;10239;56.820;24.416;2023-04-24T06:33:22;7.40;7.40;5.00
20157;PMS5003;10239;56.820;24.416;2023-04-24T06:35:51;8.00;8.00;5.00
20157;PMS5003;10239;56.820;24.416;2023-04-24T06:38:18;8.40;7.20;4.40
20157;PMS5003;10239;56.820;24.416;2023-04-24T06:40:46;9.00;7.80;5.60
20157;PMS5003;10239;56.820;24.416;2023-04-24T06:43:14;9.20;9.20;5.00
20157;PMS5003;10239;56.820;24.416;2023-04-24T06:45:41;7.00;6.20;5.00
20157;PMS5003;10239;56.820;24.416;2023-04-24T06:48:10;12.40;10.80;5.40
20157;PMS5003;10239;56.820;24.416;2023-04-24T06:50:38;7.20;7.20;4.20
20157;PMS5003;10239;56.820;24.416;2023-04-24T06:53:06;10.40;9.60;5.80
20157;PMS5003;10239;56.820;24.416;2023-04-24T06:55:33;8.20;7.80;5.00
20157;PMS5003;10239;56.820;24.416;2023-04-24T06:58:02;8.80;6.80;4.20
20157;PMS5003;10239;56.820;24.416;2023-04-24T07:00:30;7.60;6.60;3.00
20157;PMS5003;10239;56.820;24.416;2023-04-24T07:02:57;7.60;7.60;4.00
20157;PMS5003;10239;56.820;24.416;2023-04-24T07:05:25;14.80;10.40;5.00
20157;PMS5003;10239;56.820;24.416;2023-04-24T07:07:52;13.00;9.80;6.00
20157;PMS5003;10239;56.820;24.416;2023-04-24T07:10:20;9.60;8.20;5.00
20157;PMS5003;10239;56.820;24.416;2023-04-24T07:12:47;13.20;9.40;5.00
20157;PMS5003;10239;56.820;24.416;2023-04-24T07:15:15;7.20;7.20;5.00
20157;PMS5003;10239;56.820;24.416;2023-04-24T07:17:43;8.20;7.20;4.00
20157;PMS5003;10239;56.820;24.416;2023-04-24T07:20:11;9.80;8.40;5.00
20157;PMS5003;10239;56.820;24.416;2023-04-24T07:22:38;10.00;10.00;5.20
20157;PMS5003;10239;56.820;24.416;2023-04-24T07:25:06;12.00;8.80;6.20
20157;PMS5003;10239;56.820;24.416;2023-04-24T07:27:35;11.00;9.20;5.00
20157;PMS5003;10239;56.820;24.416;2023-04-24T07:30:03;6.80;6.80;3.00
20157;PMS5003;10239;56.820;24.416;2023-04-24T07:32:31;11.20;9.80;5.20
20157;PMS5003;10239;56.820;24.416;2023-04-24T07:34:59;11.60;9.80;6.00
20157;PMS5003;10239;56.820;24.416;2023-04-24T07:37:26;8.00;8.00;4.00
20157;PMS5003;10239;56.820;24.416;2023-04-24T07:39:54;10.20;9.80;5.40
20157;PMS5003;10239;56.820;24.416;2023-04-24T07:42:22;7.20;7.20;4.00
20157;PMS5003;10239;56.820;24.416;2023-04-24T07:44:49;9.00;7.20;4.00
20157;PMS5003;10239;56.820;24.416;2023-04-24T07:47:18;6.00;6.00;4.80
20157;PMS5003;10239;56.820;24.416;2023-04-24T07:49:46;8.80;7.00;4.00
20157;PMS5003;10239;56.820;24.416;2023-04-24T07:52:13;7.40;7.40;5.00
20157;PMS5003;10239;56.820;24.416;2023-04-24T07:54:41;11.20;10.20;6.20
20157;PMS5003;10239;56.820;24.416;2023-04-24T07:57:10;9.80;8.40;5.00
20157;PMS5003;10239;56.820;24.416;2023-04-24T07:59:37;11.00;8.40;4.20
20157;PMS5003;10239;56.820;24.416;2023-04-24T08:02:05;8.60;7.60;4.20
20157;PMS5003;10239;56.820;24.416;2023-04-24T08:04:33;11.40;9.00;6.20
20157;PMS5003;10239;56.820;24.416;2023-04-24T08:07:01;8.00;8.00;4.60
20157;PMS5003;10239;56.820;24.416;2023-04-24T08:09:29;9.00;8.00;5.20
20157;PMS5003;10239;56.820;24.416;2023-04-24T08:11:56;8.20;8.20;5.80
20157;PMS5003;10239;56.820;24.416;2023-04-24T08:14:24;9.00;8.00;5.00
20157;PMS5003;10239;56.820;24.416;2023-04-24T08:16:53;11.20;9.20;5.00
20157;PMS5003;10239;56.820;24.416;2023-04-24T08:19:22;13.20;11.80;6.80
20157;PMS5003;10239;56.820;24.416;2023-04-24T08:21:50;4.40;4.40;3.40
20157;PMS5003;10239;56.820;24.416;2023-04-24T08:24:17;7.20;5.40;4.00
20157;PMS5003;10239;56.820;24.416;2023-04-24T08:26:45;6.40;6.40;5.80
20157;PMS5003;10239;56.820;24.416;2023-04-24T08:29:13;9.20;9.20;5.20
20157;PMS5003;10239;56.820;24.416;2023-04-24T08:31:40;10.00;10.00;6.00
20157;PMS5003;10239;56.820;24.416;2023-04-24T08:34:09;6.00;6.00;5.00
20157;PMS5003;10239;56.820;24.416;2023-04-24T08:36:37;9.20;9.20;5.40
20157;PMS5003;10239;56.820;24.416;2023-04-24T08:39:13;13.00;8.80;4.80
20157;PMS5003;10239;56.820;24.416;2023-04-24T08:41:41;8.00;8.00;7.00
20157;PMS5003;10239;56.820;24.416;2023-04-24T08:44:09;11.00;9.40;5.80
20157;PMS5003;10239;56.820;24.416;2023-04-24T08:46:38;12.00;12.00;7.00
20157;PMS5003;10239;56.820;24.416;2023-04-24T08:49:07;11.00;9.20;5.20
20157;PMS5003;10239;56.820;24.416;2023-04-24T08:51:36;10.00;8.80;6.00
20157;PMS5003;10239;56.820;24.416;2023-04-24T08:54:04;10.60;9.00;5.00
20157;PMS5003;10239;56.820;24.416;2023-04-24T08:56:32;11.20;8.80;4.80
20157;PMS5003;10239;56.820;24.416;2023-04-24T08:59:05;6.40;6.40;4.00
20157;PMS5003;10239;56.820;24.416;2023-04-24T09:01:33;8.20;8.20;4.00
20157;PMS5003;10239;56.820;24.416;2023-04-24T09:04:04;5.00;5.00;3.00
20157;PMS5003;10239;56.820;24.416;2023-04-24T09:06:34;14.60;8.60;4.60
20157;PMS5003;10239;56.820;24.416;2023-04-24T09:09:02;12.60;10.40;6.00
20157;PMS5003;10239;56.820;24.416;2023-04-24T09:11:30;10.00;8.60;4.00
20157;PMS5003;10239;56.820;24.416;2023-04-24T09:13:59;9.20;8.40;4.40
20157;PMS5003;10239;56.820;24.416;2023-04-24T09:16:27;10.00;9.00;5.20
20157;PMS5003;10239;56.820;24.416;2023-04-24T09:18:55;13.20;10.20;5.60
20157;PMS5003;10239;56.820;24.416;2023-04-24T09:21:23;8.80;8.80;5.20
20157;PMS5003;10239;56.820;24.416;2023-04-24T09:24:06;11.80;8.60;6.00
20157;PMS5003;10239;56.820;24.416;2023-04-24T09:26:43;9.50;8.75;5.25
20157;PMS5003;10239;56.820;24.416;2023-04-24T09:29:17;8.25;7.25;3.75
20157;PMS5003;10239;56.820;24.416;2023-04-24T09:31:45;11.40;9.60;5.00
20157;PMS5003;10239;56.820;24.416;2023-04-24T09:34:13;9.00;9.00;5.00
20157;PMS5003;10239;56.820;24.416;2023-04-24T09:36:41;10.00;8.75;5.50
20157;PMS5003;10239;56.820;24.416;2023-04-24T09:39:10;12.25;11.00;6.25
20157;PMS5003;10239;56.820;24.416;2023-04-24T09:41:54;10.75;9.75;5.75
20157;PMS5003;10239;56.820;24.416;2023-04-24T09:44:26;4.25;4.25;2.25
20157;PMS5003;10239;56.820;24.416;2023-04-24T09:46:58;12.25;10.50;6.50
20157;PMS5003;10239;56.820;24.416;2023-04-24T09:49:27;9.50;8.50;6.00
20157;PMS5003;10239;56.820;24.416;2023-04-24T09:52:03;8.60;8.60;6.00
20157;PMS5003;10239;56.820;24.416;2023-04-24T09:54:31;15.00;9.20;5.20
20157;PMS5003;10239;56.820;24.416;2023-04-24T09:56:59;9.20;7.60;5.40
20157;PMS5003;10239;56.820;24.416;2023-04-24T09:59:27;12.20;9.20;6.20
20157;PMS5003;10239;56.820;24.416;2023-04-24T10:01:55;9.40;8.60;5.00
20157;PMS5003;10239;56.820;24.416;2023-04-24T10:04:27;9.60;8.00;4.00
20157;PMS5003;10239;56.820;24.416;2023-04-24T10:06:56;7.60;7.00;5.00
20157;PMS5003;10239;56.820;24.416;2023-04-24T10:09:25;10.20;9.20;5.00
20157;PMS5003;10239;56.820;24.416;2023-04-24T10:11:54;9.20;9.20;6.40
20157;PMS5003;10239;56.820;24.416;2023-04-24T10:14:22;10.00;10.00;5.00
20157;PMS5003;10239;56.820;24.416;2023-04-24T10:16:53;10.20;8.40;4.00
20157;PMS5003;10239;56.820;24.416;2023-04-24T10:19:21;9.40;9.40;6.00
20157;PMS5003;10239;56.820;24.416;2023-04-24T10:21:52;8.80;7.40;4.00
20157;PMS5003;10239;56.820;24.416;2023-04-24T10:24:22;8.40;8.40;4.80
20157;PMS5003;10239;56.820;24.416;2023-04-24T10:26:50;7.00;7.00;6.20
20157;PMS5003;10239;56.820;24.416;2023-04-24T10:29:18;10.00;10.00;5.20
20157;PMS5003;10239;56.820;24.416;2023-04-24T10:31:46;9.80;8.00;5.00
20157;PMS5003;10239;56.820;24.416;2023-04-24T10:34:14;7.40;7.40;4.00
20157;PMS5003;10239;56.820;24.416;2023-04-24T10:36:50;6.60;6.00;3.00
20157;PMS5003;10239;56.820;24.416;2023-04-24T10:39:22;10.40;7.60;5.00
20157;PMS5003;10239;56.820;24.416;2023-04-24T10:41:54;7.40;7.40;4.80
20157;PMS5003;10239;56.820;24.416;2023-04-24T10:44:25;6.80;6.80;4.00
20157;PMS5003;10239;56.820;24.416;2023-04-24T10:47:02;9.80;8.20;5.00
20157;PMS5003;10239;56.820;24.416;2023-04-24T10:49:30;7.60;7.60;4.60
20157;PMS5003;10239;56.820;24.416;2023-04-24T10:52:02;7.60;7.00;4.00
20157;PMS5003;10239;56.820;24.416;2023-04-24T10:54:46;9.80;9.00;5.60
20157;PMS5003;10239;56.820;24.416;2023-04-24T10:59:49;7.60;6.20;3.40
20157;PMS5003;10239;56.820;24.416;2023-04-24T11:02:29;7.60;7.60;5.40
20157;PMS5003;10239;56.820;24.416;2023-04-24T11:05:03;10.20;9.20;6.00
20157;PMS5003;10239;56.820;24.416;2023-04-24T11:10:45;8.80;6.60;4.60
20157;PMS5003;10239;56.820;24.416;2023-04-24T11:13:17;3.80;3.80;2.00
20157;PMS5003;10239;56.820;24.416;2023-04-24T11:18:39;5.40;5.40;5.00
20157;PMS5003;10239;56.820;24.416;2023-04-24T11:21:12;4.40;4.40;3.40
20157;PMS5003;10239;56.820;24.416;2023-04-24T11:23:44;8.60;7.60;5.00
20157;PMS5003;10239;56.820;24.416;2023-04-24T11:26:13;10.80;7.60;4.80
20157;PMS5003;10239;56.820;24.416;2023-04-24T11:29:11;9.80;7.60;5.00
20157;PMS5003;10239;56.820;24.416;2023-04-24T11:31:39;4.60;4.60;4.00
20157;PMS5003;10239;56.820;24.416;2023-04-24T11:34:12;6.20;5.80;3.20
20157;PMS5003;10239;56.820;24.416;2023-04-24T11:36:44;12.40;9.40;4.20
20157;PMS5003;10239;56.820;24.416;2023-04-24T11:39:13;4.20;4.20;2.80
20157;PMS5003;10239;56.820;24.416;2023-04-24T11:41:41;8.40;8.40;5.20
20157;PMS5003;10239;56.820;24.416;2023-04-24T11:44:09;13.20;12.20;6.60
20157;PMS5003;10239;56.820;24.416;2023-04-24T11:46:38;9.80;8.60;5.20
20157;PMS5003;10239;56.820;24.416;2023-04-24T11:49:07;5.00;3.80;1.80
20157;PMS5003;10239;56.820;24.416;2023-04-24T11:51:34;9.60;8.40;4.60
20157;PMS5003;10239;56.820;24.416;2023-04-24T11:54:18;13.60;11.20;5.80
20157;PMS5003;10239;56.820;24.416;2023-04-24T11:56:46;10.00;9.80;6.40
20157;PMS5003;10239;56.820;24.416;2023-04-24T11:59:14;11.00;11.00;7.00
20157;PMS5003;10239;56.820;24.416;2023-04-24T12:01:48;12.60;11.40;7.00
20157;PMS5003;10239;56.820;24.416;2023-04-24T12:04:17;10.80;9.40;6.00
20157;PMS5003;10239;56.820;24.416;2023-04-24T12:09:39;9.20;8.80;6.40
20157;PMS5003;10239;56.820;24.416;2023-04-24T12:12:14;11.40;11.40;7.00
20157;PMS5003;10239;56.820;24.416;2023-04-24T12:17:25;8.60;8.60;5.00
20157;PMS5003;10239;56.820;24.416;2023-04-24T12:19:57;13.60;12.00;8.00
20157;PMS5003;10239;56.820;24.416;2023-04-24T12:22:49;14.80;10.00;5.20
20157;PMS5003;10239;56.820;24.416;2023-04-24T12:25:21;9.20;9.20;6.00
20157;PMS5003;10239;56.820;24.416;2023-04-24T12:27:54;11.00;11.00;5.80
20157;PMS5003;10239;56.820;24.416;2023-04-24T12:30:41;10.60;10.60;7.00
20157;PMS5003;10239;56.820;24.416;2023-04-24T12:33:19;13.20;10.60;7.20
20157;PMS5003;10239;56.820;24.416;2023-04-24T12:35:48;15.40;14.80;8.60
20157;PMS5003;10239;56.820;24.416;2023-04-24T12:38:22;13.60;11.00;7.00
20157;PMS5003;10239;56.820;24.416;2023-04-24T12:41:06;12.20;10.60;6.00
20157;PMS5003;10239;56.820;24.416;2023-04-24T12:43:33;12.60;12.60;6.60
20157;PMS5003;10239;56.820;24.416;2023-04-24T12:46:01;10.20;8.60;6.20
20157;PMS5003;10239;56.820;24.416;2023-04-24T12:48:29;12.00;10.60;7.60
20157;PMS5003;10239;56.820;24.416;2023-04-24T12:50:58;5.80;5.80;4.40
20157;PMS5003;10239;56.820;24.416;2023-04-24T12:53:28;8.80;8.80;7.00
20157;PMS5003;10239;56.820;24.416;2023-04-24T12:55:58;7.00;7.00;6.80
20157;PMS5003;10239;56.820;24.416;2023-04-24T12:58:26;9.80;9.80;6.60
20157;PMS5003;10239;56.820;24.416;2023-04-24T13:00:53;13.20;11.40;7.00
20157;PMS5003;10239;56.820;24.416;2023-04-24T13:03:21;9.60;9.20;4.00
20157;PMS5003;10239;56.820;24.416;2023-04-24T13:05:49;12.60;12.00;7.00
20157;PMS5003;10239;56.820;24.416;2023-04-24T13:08:16;9.80;9.80;5.80
20157;PMS5003;10239;56.820;24.416;2023-04-24T13:10:44;5.40;5.40;3.00
20157;PMS5003;10239;56.820;24.416;2023-04-24T13:13:12;9.40;7.60;6.00
20157;PMS5003;10239;56.820;24.416;2023-04-24T13:15:39;13.20;10.60;5.80
20157;PMS5003;10239;56.820;24.416;2023-04-24T13:18:07;8.20;8.20;4.80
20157;PMS5003;10239;56.820;24.416;2023-04-24T13:20:34;11.40;9.00;6.20
20157;PMS5003;10239;56.820;24.416;2023-04-24T13:23:02;13.20;11.20;6.40
20157;PMS5003;10239;56.820;24.416;2023-04-24T13:25:34;11.40;10.80;5.80
20157;PMS5003;10239;56.820;24.416;2023-04-24T13:28:03;10.60;8.60;5.00
20157;PMS5003;10239;56.820;24.416;2023-04-24T13:30:31;13.20;10.60;6.00
20157;PMS5003;10239;56.820;24.416;2023-04-24T13:32:58;11.20;10.40;6.00
20157;PMS5003;10239;56.820;24.416;2023-04-24T13:35:26;14.60;9.40;6.00
20157;PMS5003;10239;56.820;24.416;2023-04-24T13:37:54;7.40;7.40;5.20
20157;PMS5003;10239;56.820;24.416;2023-04-24T13:40:21;14.60;12.00;8.00
20157;PMS5003;10239;56.820;24.416;2023-04-24T13:42:49;13.00;12.60;6.80
20157;PMS5003;10239;56.820;24.416;2023-04-24T13:45:17;10.60;9.40;6.40
20157;PMS5003;10239;56.820;24.416;2023-04-24T13:47:51;13.00;10.40;7.00
20157;PMS5003;10239;56.820;24.416;2023-04-24T13:50:20;13.00;11.20;6.20
20157;PMS5003;10239;56.820;24.416;2023-04-24T13:52:48;10.60;10.60;6.40
20157;PMS5003;10239;56.820;24.416;2023-04-24T13:55:16;10.60;10.40;6.00
20157;PMS5003;10239;56.820;24.416;2023-04-24T13:57:44;14.00;11.40;9.40
20157;PMS5003;10239;56.820;24.416;2023-04-24T14:00:11;14.40;11.40;6.40
20157;PMS5003;10239;56.820;24.416;2023-04-24T14:02:40;11.20;8.80;5.40
20157;PMS5003;10239;56.820;24.416;2023-04-24T14:05:08;10.80;8.60;6.00
20157;PMS5003;10239;56.820;24.416;2023-04-24T14:07:37;6.40;6.40;6.00
20157;PMS5003;10239;56.820;24.416;2023-04-24T14:10:05;17.20;13.00;7.00
20157;PMS5003;10239;56.820;24.416;2023-04-24T14:12:33;10.20;10.20;7.00
20157;PMS5003;10239;56.820;24.416;2023-04-24T14:15:01;11.00;11.00;7.00
20157;PMS5003;10239;56.820;24.416;2023-04-24T14:17:29;10.60;10.60;6.00
20157;PMS5003;10239;56.820;24.416;2023-04-24T14:19:57;10.80;9.40;6.40
20157;PMS5003;10239;56.820;24.416;2023-04-24T14:22:27;9.00;9.00;5.00
20157;PMS5003;10239;56.820;24.416;2023-04-24T14:24:54;10.80;9.00;6.20
20157;PMS5003;10239;56.820;24.416;2023-04-24T14:27:22;13.60;10.80;7.20
20157;PMS5003;10239;56.820;24.416;2023-04-24T14:29:50;11.80;9.20;7.00
20157;PMS5003;10239;56.820;24.416;2023-04-24T14:32:17;10.20;9.20;6.00